^^
Station Historical Data
Daily Summary for January 28, 2018 Units:  Both    English   Metric
« Previous Day
Next Day »
Daily Weekly Monthly Yearly Custom
  High: Low: Average:
Temperature: TemperatureC °F /  -17.8 °C -1.8 °F /  -18.8 °C -0 °F /  -17.8 °C
Dew Point: DewpointC °F /  -17.8 °C -2.6 °F /  -19.2 °C -0.9 °F /  -18.3 °C
Humidity: Humidity% 93% 94%
Wind Speed: WindSpeedKMHmph /  0km/h - 1.8mph /  2.9km/h
Wind Gust: WindSpeedGustKMHmph /  0km/h - -
Wind- - SE
Pressure: PressurehPa in /  0 hPa 1002.9 in /  33958.2 hPa -
Precipitation: 1.5 in /  38.1 mm    
Historical Graphs
 
 
Tabular Data for January 28, 2018
Time Temperature Dew Point Pressure Wind Wind Speed Wind Gust Humidity Rainfall Rate (Hourly) solar Conditions
TemperatureC °F /  -17.8 °C DewpointC °F /  -17.8 °C PressurehPain /  0hPa Calm     Humidity% HourlyPrecipMMin /  0mm SoftwareType W/m2 Conditions
00:03 -0.2 °F /  -17.9 °C -1.0 °F /  -18.3 °C 1016.1in /  34405.1hPa West 1.9mph /  3.1km/h 5.6mph /  9km/h 94% 0.0in /  0mm WeatherDisplay:10.37 W/m2 RA
00:08 -0.2 °F /  -17.9 °C -1.0 °F /  -18.3 °C 1016.1in /  34405.1hPa Calm     94% 0.0in /  0mm WeatherDisplay:10.37 W/m2 RA
00:13 -0.2 °F /  -17.9 °C -1.0 °F /  -18.3 °C 1016.1in /  34405.1hPa West 0.6mph /  1km/h   94% 0.0in /  0mm WeatherDisplay:10.37 W/m2 FEW
00:18 -0.2 °F /  -17.9 °C -1.0 °F /  -18.3 °C 1016.1in /  34405.1hPa Calm     94% 0.0in /  0mm WeatherDisplay:10.37 W/m2 FEW
00:23 -0.2 °F /  -17.9 °C -1.0 °F /  -18.3 °C 1016.1in /  34405.1hPa WSW 0.8mph /  1.3km/h 3.2mph /  5.1km/h 94% 0.0in /  0mm WeatherDisplay:10.37 W/m2 FEW
00:28 -0.2 °F /  -17.9 °C -1.1 °F /  -18.4 °C 1016.1in /  34405.1hPa WSW 0.5mph /  0.8km/h 3.7mph /  6km/h 94% 0.0in /  0mm WeatherDisplay:10.37 W/m2 FEW
00:33 -0.2 °F /  -17.9 °C -1.1 °F /  -18.4 °C 1016.1in /  34405.1hPa SW 1.0mph /  1.6km/h 4.8mph /  7.7km/h 94% 0.0in /  0mm WeatherDisplay:10.37 W/m2 FEW
00:38 -0.2 °F /  -17.9 °C -1.1 °F /  -18.4 °C 1016.1in /  34405.1hPa NW 1.0mph /  1.6km/h 5.6mph /  9km/h 94% 0.0in /  0mm WeatherDisplay:10.37 W/m2 FEW
00:43 -0.3 °F /  -17.9 °C -1.1 °F /  -18.4 °C 1016.1in /  34405.1hPa Calm     94% 0.0in /  0mm WeatherDisplay:10.37 W/m2 FEW
00:48 -0.3 °F /  -17.9 °C -1.1 °F /  -18.4 °C 1016.5in /  34418.7hPa Calm   5.6mph /  9km/h 94% 0.0in /  0mm WeatherDisplay:10.37 W/m2 FEW
00:53 -0.3 °F /  -17.9 °C -1.2 °F /  -18.4 °C 1016.5in /  34418.7hPa Calm     94% 0.0in /  0mm WeatherDisplay:10.37 W/m2 FEW
00:58 -0.4 °F /  -18 °C -1.2 °F /  -18.4 °C 1016.5in /  34418.7hPa Calm   5.6mph /  9km/h 94% 0.0in /  0mm WeatherDisplay:10.37 W/m2 FEW
01:03 -0.4 °F /  -18 °C -1.4 °F /  -18.6 °C 1016.1in /  34405.1hPa WNW 3.1mph /  5km/h 3.1mph /  5km/h 93% 0.0in /  0mm WeatherDisplay:10.37 W/m2 FEW
01:08 -0.4 °F /  -18 °C -1.4 °F /  -18.6 °C 1016.1in /  34405.1hPa West 0.2mph /  0.3km/h 5.6mph /  9km/h 93% 0.0in /  0mm WeatherDisplay:10.37 W/m2 FEW
01:13 -0.4 °F /  -18 °C -1.4 °F /  -18.6 °C 1016.1in /  34405.1hPa WSW 2.9mph /  4.7km/h 3.7mph /  6km/h 93% 0.0in /  0mm WeatherDisplay:10.37 W/m2 FEW
01:18 -0.4 °F /  -18 °C -1.4 °F /  -18.6 °C 1016.1in /  34405.1hPa NNW 1.1mph /  1.8km/h 5.6mph /  9km/h 93% 0.0in /  0mm WeatherDisplay:10.37 W/m2 FEW
01:23 -0.4 °F /  -18 °C -1.4 °F /  -18.6 °C 1016.1in /  34405.1hPa Calm     93% 0.0in /  0mm WeatherDisplay:10.37 W/m2 FEW
01:28 -0.4 °F /  -18 °C -1.4 °F /  -18.6 °C 1016.5in /  34418.7hPa Calm     93% 0.0in /  0mm WeatherDisplay:10.37 W/m2 FEW
01:33 -0.4 °F /  -18 °C -1.4 °F /  -18.6 °C 1016.5in /  34418.7hPa Calm     93% 0.0in /  0mm WeatherDisplay:10.37 W/m2 FEW
01:38 -0.4 °F /  -18 °C -1.4 °F /  -18.6 °C 1016.5in /  34418.7hPa Calm     93% 0.0in /  0mm WeatherDisplay:10.37 W/m2 FEW
01:43 -0.4 °F /  -18 °C -1.4 °F /  -18.6 °C 1016.5in /  34418.7hPa Calm     93% 0.0in /  0mm WeatherDisplay:10.37 W/m2 FEW
01:48 -0.4 °F /  -18 °C -1.2 °F /  -18.4 °C 1016.1in /  34405.1hPa Calm     94% 0.0in /  0mm WeatherDisplay:10.37 W/m2 FEW
01:53 -0.4 °F /  -18 °C -1.4 °F /  -18.6 °C 1016.1in /  34405.1hPa Calm     93% 0.0in /  0mm WeatherDisplay:10.37 W/m2 FEW
01:58 -0.4 °F /  -18 °C -1.4 °F /  -18.6 °C 1016.1in /  34405.1hPa Calm     93% 0.0in /  0mm WeatherDisplay:10.37 W/m2 FEW
02:03 -0.4 °F /  -18 °C -1.4 °F /  -18.6 °C 1016.1in /  34405.1hPa Calm     93% 0.0in /  0mm WeatherDisplay:10.37 W/m2 FEW
02:08 -0.4 °F /  -18 °C -1.2 °F /  -18.4 °C 1016.1in /  34405.1hPa Calm     94% 0.0in /  0mm WeatherDisplay:10.37 W/m2 FEW
02:13 -0.4 °F /  -18 °C -1.2 °F /  -18.4 °C 1016.1in /  34405.1hPa Calm     94% 0.0in /  0mm WeatherDisplay:10.37 W/m2 FEW
02:18 -0.3 °F /  -17.9 °C -1.2 °F /  -18.4 °C 1016.1in /  34405.1hPa Calm     94% 0.0in /  0mm WeatherDisplay:10.37 W/m2 FEW
02:23 -0.3 °F /  -17.9 °C -1.2 °F /  -18.4 °C 1016.1in /  34405.1hPa Calm     94% 0.0in /  0mm WeatherDisplay:10.37 W/m2 FEW
02:28 -0.3 °F /  -17.9 °C -1.2 °F /  -18.4 °C 1016.1in /  34405.1hPa South 1.6mph /  2.6km/h 4.8mph /  7.7km/h 94% 0.0in /  0mm WeatherDisplay:10.37 W/m2 FEW
02:33 -0.3 °F /  -17.9 °C -1.2 °F /  -18.4 °C 1016.1in /  34405.1hPa Calm   1.6mph /  2.6km/h 94% 0.0in /  0mm WeatherDisplay:10.37 W/m2 FEW
02:38 -0.4 °F /  -18 °C -1.2 °F /  -18.4 °C 1016.1in /  34405.1hPa Calm     94% 0.0in /  0mm WeatherDisplay:10.37 W/m2 FEW
02:43 -0.4 °F /  -18 °C -1.3 °F /  -18.5 °C 1016.1in /  34405.1hPa Calm     94% 0.0in /  0mm WeatherDisplay:10.37 W/m2 FEW
02:48 -0.4 °F /  -18 °C -1.3 °F /  -18.5 °C 1015.8in /  34395hPa Calm     94% 0.0in /  0mm WeatherDisplay:10.37 W/m2 FEW
02:53 -0.4 °F /  -18 °C -1.3 °F /  -18.5 °C 1015.8in /  34395hPa Calm   1.6mph /  2.6km/h 94% 0.0in /  0mm WeatherDisplay:10.37 W/m2 FEW
02:58 -0.4 °F /  -18 °C -1.3 °F /  -18.5 °C 1016.1in /  34405.1hPa Calm     94% 0.0in /  0mm WeatherDisplay:10.37 W/m2 FEW
03:03 -0.4 °F /  -18 °C -1.3 °F /  -18.5 °C 1015.8in /  34395hPa Calm     94% 0.0in /  0mm WeatherDisplay:10.37 W/m2 FEW
03:08 -0.4 °F /  -18 °C -1.3 °F /  -18.5 °C 1015.8in /  34395hPa Calm     94% 0.0in /  0mm WeatherDisplay:10.37 W/m2 FEW
03:13 -0.4 °F /  -18 °C -1.2 °F /  -18.4 °C 1015.8in /  34395hPa Calm     94% 0.0in /  0mm WeatherDisplay:10.37 W/m2 FEW
03:18 -0.4 °F /  -18 °C -1.2 °F /  -18.4 °C 1015.8in /  34395hPa WSW 1.9mph /  3.1km/h 5.6mph /  9km/h 94% 0.0in /  0mm WeatherDisplay:10.37 W/m2 FEW
03:23 -0.4 °F /  -18 °C -1.3 °F /  -18.5 °C 1015.8in /  34395hPa Calm     94% 0.0in /  0mm WeatherDisplay:10.37 W/m2 FEW
03:28 -0.4 °F /  -18 °C -1.3 °F /  -18.5 °C 1015.8in /  34395hPa Calm     94% 0.0in /  0mm WeatherDisplay:10.37 W/m2 FEW
03:33 -0.5 °F /  -18.1 °C -1.3 °F /  -18.5 °C 1015.8in /  34395hPa Calm     94% 0.0in /  0mm WeatherDisplay:10.37 W/m2 FEW
03:38 -0.6 °F /  -18.1 °C -1.4 °F /  -18.6 °C 1015.5in /  34384.8hPa Calm     94% 0.0in /  0mm WeatherDisplay:10.37 W/m2 FEW
03:43 -0.6 °F /  -18.1 °C -1.4 °F /  -18.6 °C 1015.5in /  34384.8hPa Calm     94% 0.0in /  0mm WeatherDisplay:10.37 W/m2 FEW
03:48 -0.6 °F /  -18.1 °C -1.4 °F /  -18.6 °C 1015.5in /  34384.8hPa Calm     94% 0.0in /  0mm WeatherDisplay:10.37 W/m2 FEW
03:53 -0.6 °F /  -18.1 °C -1.4 °F /  -18.6 °C 1015.5in /  34384.8hPa Calm     94% 0.0in /  0mm WeatherDisplay:10.37 W/m2 FEW
03:58 -0.6 °F /  -18.1 °C -1.4 °F /  -18.6 °C 1015.5in /  34384.8hPa Calm     94% 0.0in /  0mm WeatherDisplay:10.37 W/m2 FEW
04:03 -0.6 °F /  -18.1 °C -1.4 °F /  -18.6 °C 1015.5in /  34384.8hPa Calm     94% 0.0in /  0mm WeatherDisplay:10.37 W/m2 FEW
04:08 -0.7 °F /  -18.2 °C -1.5 °F /  -18.6 °C 1015.1in /  34371.3hPa Calm     94% 0.0in /  0mm WeatherDisplay:10.37 W/m2 FEW
04:13 -0.7 °F /  -18.2 °C -1.5 °F /  -18.6 °C 1015.1in /  34371.3hPa Calm     94% 0.0in /  0mm WeatherDisplay:10.37 W/m2 FEW
04:18 -0.7 °F /  -18.2 °C -1.5 °F /  -18.6 °C 1015.1in /  34371.3hPa WSW 1.1mph /  1.8km/h 3.7mph /  6km/h 94% 0.0in /  0mm WeatherDisplay:10.37 W/m2 FEW
04:23 -0.8 °F /  -18.2 °C -1.6 °F /  -18.7 °C 1015.1in /  34371.3hPa Calm     94% 0.0in /  0mm WeatherDisplay:10.37 W/m2 FEW
04:28 -0.8 °F /  -18.2 °C -1.6 °F /  -18.7 °C 1015.1in /  34371.3hPa Calm     94% 0.0in /  0mm WeatherDisplay:10.37 W/m2 FEW
04:33 -0.8 °F /  -18.2 °C -1.7 °F /  -18.7 °C 1015.1in /  34371.3hPa Calm     94% 0.0in /  0mm WeatherDisplay:10.37 W/m2 FEW
04:38 -0.8 °F /  -18.2 °C -1.7 °F /  -18.7 °C 1015.1in /  34371.3hPa Calm     94% 0.0in /  0mm WeatherDisplay:10.37 W/m2 FEW
04:43 -0.8 °F /  -18.2 °C -1.7 °F /  -18.7 °C 1015.1in /  34371.3hPa Calm     94% 0.0in /  0mm WeatherDisplay:10.37 W/m2 FEW
04:48 -0.8 °F /  -18.2 °C -1.7 °F /  -18.7 °C 1015.1in /  34371.3hPa Calm     94% 0.0in /  0mm WeatherDisplay:10.37 W/m2 FEW
04:53 -0.8 °F /  -18.2 °C -1.6 °F /  -18.7 °C 1014.8in /  34361.1hPa Calm     94% 0.0in /  0mm WeatherDisplay:10.37 W/m2 FEW
04:58 -0.8 °F /  -18.2 °C -1.7 °F /  -18.7 °C 1014.8in /  34361.1hPa Calm     94% 0.0in /  0mm WeatherDisplay:10.37 W/m2 FEW
05:03 -0.8 °F /  -18.2 °C -1.7 °F /  -18.7 °C 1014.8in /  34361.1hPa Calm     94% 0.0in /  0mm WeatherDisplay:10.37 W/m2 FEW
05:08 -0.8 °F /  -18.2 °C -1.7 °F /  -18.7 °C 1014.8in /  34361.1hPa Calm     94% 0.0in /  0mm WeatherDisplay:10.37 W/m2 FEW
05:13 -0.9 °F /  -18.3 °C -1.7 °F /  -18.7 °C 1014.4in /  34347.6hPa Calm     94% 0.0in /  0mm WeatherDisplay:10.37 W/m2 FEW
05:18 -0.9 °F /  -18.3 °C -1.7 °F /  -18.7 °C 1014.4in /  34347.6hPa Calm     94% 0.0in /  0mm WeatherDisplay:10.37 W/m2 FEW
05:23 -0.9 °F /  -18.3 °C -1.7 °F /  -18.7 °C 1014.4in /  34347.6hPa Calm     94% 0.0in /  0mm WeatherDisplay:10.37 W/m2 FEW
05:28 -0.9 °F /  -18.3 °C -1.7 °F /  -18.7 °C 1014.4in /  34347.6hPa Calm     94% 0.0in /  0mm WeatherDisplay:10.37 W/m2 FEW
05:33 -0.9 °F /  -18.3 °C -1.8 °F /  -18.8 °C 1014.4in /  34347.6hPa Calm     94% 0.0in /  0mm WeatherDisplay:10.37 W/m2 FEW
05:38 -0.9 °F /  -18.3 °C -1.8 °F /  -18.8 °C 1014.1in /  34337.4hPa Calm     94% 0.0in /  0mm WeatherDisplay:10.37 W/m2 FEW
05:43 -1.0 °F /  -18.3 °C -1.8 °F /  -18.8 °C 1014.1in /  34337.4hPa Calm     94% 0.0in /  0mm WeatherDisplay:10.37 W/m2 FEW
05:48 -1.1 °F /  -18.4 °C -1.9 °F /  -18.8 °C 1014.1in /  34337.4hPa Calm     94% 0.0in /  0mm WeatherDisplay:10.37 W/m2 FEW
05:53 -1.1 °F /  -18.4 °C -1.9 °F /  -18.8 °C 1014.1in /  34337.4hPa Calm     94% 0.0in /  0mm WeatherDisplay:10.37 W/m2 FEW
05:58 -1.1 °F /  -18.4 °C -1.9 °F /  -18.8 °C 1014.1in /  34337.4hPa Calm     94% 0.0in /  0mm WeatherDisplay:10.37 W/m2 FEW
06:03 -1.1 °F /  -18.4 °C -1.9 °F /  -18.8 °C 1013.8in /  34327.3hPa Calm     94% 0.0in /  0mm WeatherDisplay:10.37 W/m2 FEW
06:08 -1.1 °F /  -18.4 °C -1.9 °F /  -18.8 °C 1013.8in /  34327.3hPa Calm     94% 0.0in /  0mm WeatherDisplay:10.37 W/m2 FEW
06:13 -1.1 °F /  -18.4 °C -1.9 °F /  -18.8 °C 1013.8in /  34327.3hPa Calm     94% 0.0in /  0mm WeatherDisplay:10.37 W/m2 FEW
06:18 -1.1 °F /  -18.4 °C -1.9 °F /  -18.8 °C 1013.4in /  34313.7hPa Calm     94% 0.0in /  0mm WeatherDisplay:10.37 W/m2 FEW
06:23 -1.2 °F /  -18.4 °C -2.0 °F /  -18.9 °C 1013.4in /  34313.7hPa Calm     94% 0.0in /  0mm WeatherDisplay:10.37 W/m2 FEW
06:28 -1.2 °F /  -18.4 °C -2.0 °F /  -18.9 °C 1013.4in /  34313.7hPa Calm     94% 0.0in /  0mm WeatherDisplay:10.37 W/m2 FEW
06:33 -1.2 °F /  -18.4 °C -2.1 °F /  -18.9 °C 1013.4in /  34313.7hPa Calm     94% 0.0in /  0mm WeatherDisplay:10.37 W/m2 FEW
06:38 -1.2 °F /  -18.4 °C -2.1 °F /  -18.9 °C 1013.4in /  34313.7hPa Calm     94% 0.0in /  0mm WeatherDisplay:10.37 W/m2 FEW
06:43 -1.2 °F /  -18.4 °C -2.1 °F /  -18.9 °C 1013.4in /  34313.7hPa Calm     94% 0.0in /  0mm WeatherDisplay:10.37 W/m2 FEW
06:48 -1.2 °F /  -18.4 °C -2.1 °F /  -18.9 °C 1013.1in /  34303.6hPa Calm     94% 0.0in /  0mm WeatherDisplay:10.37 W/m2 FEW
06:53 -1.2 °F /  -18.4 °C -2.1 °F /  -18.9 °C 1013.1in /  34303.6hPa Calm     94% 0.0in /  0mm WeatherDisplay:10.37 W/m2 FEW
06:58 -1.3 °F /  -18.5 °C -2.2 °F /  -19 °C 1013.1in /  34303.6hPa Calm     94% 0.0in /  0mm WeatherDisplay:10.37 W/m2 FEW
07:03 -1.4 °F /  -18.6 °C -2.2 °F /  -19 °C 1013.1in /  34303.6hPa Calm     94% 0.0in /  0mm WeatherDisplay:10.37 W/m2 FEW
07:08 -1.5 °F /  -18.6 °C -2.3 °F /  -19.1 °C 1013.1in /  34303.6hPa Calm     94% 0.0in /  0mm WeatherDisplay:10.37 W/m2 FEW
07:13 -1.5 °F /  -18.6 °C -2.3 °F /  -19.1 °C 1013.1in /  34303.6hPa Calm     94% 0.0in /  0mm WeatherDisplay:10.37 W/m2 FEW
07:18 -1.6 °F /  -18.7 °C -2.4 °F /  -19.1 °C 1013.1in /  34303.6hPa Calm     94% 0.0in /  0mm WeatherDisplay:10.37 W/m2 FEW
07:23 -1.7 °F /  -18.7 °C -2.5 °F /  -19.2 °C 1013.1in /  34303.6hPa Calm     94% 0.0in /  0mm WeatherDisplay:10.37 W/m2 FEW
07:28 -1.7 °F /  -18.7 °C -2.6 °F /  -19.2 °C 1012.8in /  34293.4hPa Calm     94% 0.0in /  0mm WeatherDisplay:10.37 W/m2 FEW
07:33 -1.8 °F /  -18.8 °C -2.6 °F /  -19.2 °C 1012.8in /  34293.4hPa Calm     94% 0.0in /  0mm WeatherDisplay:10.37 W/m2 FEW
07:38 -1.8 °F /  -18.8 °C -2.6 °F /  -19.2 °C 1012.8in /  34293.4hPa Calm     94% 0.0in /  0mm WeatherDisplay:10.37 W/m2 FEW
07:43 -1.7 °F /  -18.7 °C -2.6 °F /  -19.2 °C 1012.8in /  34293.4hPa Calm     94% 0.0in /  0mm WeatherDisplay:10.37 W/m2 FEW
07:48 -1.7 °F /  -18.7 °C -2.5 °F /  -19.2 °C 1012.8in /  34293.4hPa Calm     94% 0.0in /  0mm WeatherDisplay:10.37 W/m2 FEW
07:53 -1.6 °F /  -18.7 °C -2.4 °F /  -19.1 °C 1012.4in /  34279.9hPa ENE 2.9mph /  4.7km/h 5.6mph /  9km/h 94% 0.0in /  0mm WeatherDisplay:10.37 W/m2 FEW
07:58 -1.6 °F /  -18.7 °C -2.4 °F /  -19.1 °C 1012.4in /  34279.9hPa ENE 0.8mph /  1.3km/h 3.7mph /  6km/h 94% 0.0in /  0mm WeatherDisplay:10.37 W/m2 FEW
08:03 -1.5 °F /  -18.6 °C -2.3 °F /  -19.1 °C 1012.4in /  34279.9hPa Calm     94% 0.0in /  0mm WeatherDisplay:10.37 W/m2 FEW
08:08 -1.5 °F /  -18.6 °C -2.3 °F /  -19.1 °C 1012.1in /  34269.7hPa East 0.8mph /  1.3km/h 3.7mph /  6km/h 94% 0.0in /  0mm WeatherDisplay:10.37 W/m2 FEW
08:13 -1.4 °F /  -18.6 °C -2.3 °F /  -19.1 °C 1012.1in /  34269.7hPa Calm     94% 0.0in /  0mm WeatherDisplay:10.37 W/m2 FEW
08:18 -1.4 °F /  -18.6 °C -2.3 °F /  -19.1 °C 1012.1in /  34269.7hPa Calm     94% 0.0in /  0mm WeatherDisplay:10.37 W/m2 FEW
08:23 -1.4 °F /  -18.6 °C -2.2 °F /  -19 °C 1012.1in /  34269.7hPa Calm     94% 0.0in /  0mm WeatherDisplay:10.37 W/m2 FEW
08:28 -1.3 °F /  -18.5 °C -2.2 °F /  -19 °C 1012.1in /  34269.7hPa East 0.8mph /  1.3km/h 3.7mph /  6km/h 94% 0.0in /  0mm WeatherDisplay:10.37 W/m2 FEW
08:33 -1.3 °F /  -18.5 °C -2.1 °F /  -18.9 °C 1012.1in /  34269.7hPa Calm     94% 0.0in /  0mm WeatherDisplay:10.37 W/m2 FEW
08:38 -1.2 °F /  -18.4 °C -2.1 °F /  -18.9 °C 1011.7in /  34256.2hPa Calm     94% 0.0in /  0mm WeatherDisplay:10.37 W/m2 FEW
08:43 -1.2 °F /  -18.4 °C -2.0 °F /  -18.9 °C 1011.7in /  34256.2hPa Calm     94% 0.0in /  0mm WeatherDisplay:10.37 W/m2 FEW
08:48 -1.1 °F /  -18.4 °C -1.9 °F /  -18.8 °C 1011.7in /  34256.2hPa East 0.5mph /  0.8km/h 3.2mph /  5.1km/h 94% 0.0in /  0mm WeatherDisplay:10.37 W/m2 FEW
08:53 -1.1 °F /  -18.4 °C -1.9 °F /  -18.8 °C 1011.7in /  34256.2hPa East 0.5mph /  0.8km/h 3.7mph /  6km/h 94% 0.0in /  0mm WeatherDisplay:10.37 W/m2 FEW
08:58 -1.0 °F /  -18.3 °C -1.8 °F /  -18.8 °C 1011.7in /  34256.2hPa Calm     94% 0.0in /  0mm WeatherDisplay:10.37 W/m2 FEW
09:03 -0.9 °F /  -18.3 °C -1.8 °F /  -18.8 °C 1011.7in /  34256.2hPa Calm     94% 0.0in /  0mm WeatherDisplay:10.37 W/m2 FEW
09:08 -0.9 °F /  -18.3 °C -1.7 °F /  -18.7 °C 1011.7in /  34256.2hPa Calm     94% 0.0in /  0mm WeatherDisplay:10.37 W/m2 FEW
09:13 -0.8 °F /  -18.2 °C -1.7 °F /  -18.7 °C 1011.7in /  34256.2hPa Calm     94% 0.0in /  0mm WeatherDisplay:10.37 W/m2 FEW
09:18 -0.8 °F /  -18.2 °C -1.6 °F /  -18.7 °C 1011.7in /  34256.2hPa Calm     94% 0.0in /  0mm WeatherDisplay:10.37 W/m2 FEW
09:23 -0.7 °F /  -18.2 °C -1.5 °F /  -18.6 °C 1011.7in /  34256.2hPa Calm     94% 0.0in /  0mm WeatherDisplay:10.37 W/m2 FEW
09:28 -0.6 °F /  -18.1 °C -1.4 °F /  -18.6 °C 1011.4in /  34246hPa Calm     94% 0.0in /  0mm WeatherDisplay:10.37 W/m2 FEW
09:33 -0.6 °F /  -18.1 °C -1.4 °F /  -18.6 °C 1011.4in /  34246hPa Calm     94% 0.0in /  0mm WeatherDisplay:10.37 W/m2 FEW
09:37 -0.5 °F /  -18.1 °C -1.3 °F /  -18.5 °C 1011.4in /  34246hPa Calm     94% 0.0in /  0mm WeatherDisplay:10.37 W/m2 FEW
09:42 -0.4 °F /  -18 °C -1.3 °F /  -18.5 °C 1011.4in /  34246hPa Calm     94% 0.0in /  0mm WeatherDisplay:10.37 W/m2 FEW
09:47 -0.4 °F /  -18 °C -1.2 °F /  -18.4 °C 1011.4in /  34246hPa Calm     94% 0.0in /  0mm WeatherDisplay:10.37 W/m2 FEW
09:52 -0.3 °F /  -17.9 °C -1.1 °F /  -18.4 °C 1011.4in /  34246hPa East 1.6mph /  2.6km/h 4.8mph /  7.7km/h 94% 0.0in /  0mm WeatherDisplay:10.37 W/m2 FEW
09:57 -0.2 °F /  -17.9 °C -1.0 °F /  -18.3 °C 1011.4in /  34246hPa SSE 1.6mph /  2.6km/h 3.7mph /  6km/h 94% 0.0in /  0mm WeatherDisplay:10.37 W/m2 FEW
10:02 -0.1 °F /  -17.8 °C -0.9 °F /  -18.3 °C 1011.4in /  34246hPa Calm     94% 0.0in /  0mm WeatherDisplay:10.37 W/m2 FEW
10:07 0.0 °F /  -17.8 °C -0.8 °F /  -18.2 °C 1011.4in /  34246hPa SE 3.2mph /  5.1km/h 3.7mph /  6km/h 94% 0.0in /  0mm WeatherDisplay:10.37 W/m2 FEW
10:12 0.1 °F /  -17.7 °C -0.8 °F /  -18.2 °C 1011.4in /  34246hPa East 3.2mph /  5.1km/h 3.2mph /  5.1km/h 94% 0.0in /  0mm WeatherDisplay:10.37 W/m2 FEW
10:17 0.1 °F /  -17.7 °C -0.7 °F /  -18.2 °C 1011.1in /  34235.8hPa South 2.3mph /  3.7km/h 3.2mph /  5.1km/h 94% 0.0in /  0mm WeatherDisplay:10.37 W/m2 FEW
10:22 0.2 °F /  -17.7 °C -0.7 °F /  -18.2 °C 1011.1in /  34235.8hPa SSE 0.8mph /  1.3km/h 5.6mph /  9km/h 94% 0.0in /  0mm WeatherDisplay:10.37 W/m2 FEW
10:27 0.2 °F /  -17.7 °C -0.7 °F /  -18.2 °C 1011.1in /  34235.8hPa SE 1.1mph /  1.8km/h 7.4mph /  11.9km/h 94% 0.0in /  0mm WeatherDisplay:10.37 W/m2 FEW
10:33 0.2 °F /  -17.7 °C -0.7 °F /  -18.2 °C 1011.1in /  34235.8hPa Calm     94% 0.0in /  0mm WeatherDisplay:10.37 W/m2 FEW
10:38 0.2 °F /  -17.7 °C -0.6 °F /  -18.1 °C 1011.1in /  34235.8hPa Calm     94% 0.0in /  0mm WeatherDisplay:10.37 W/m2 FEW
10:44 0.3 °F /  -17.6 °C -0.6 °F /  -18.1 °C 1011.1in /  34235.8hPa Calm     94% 0.0in /  0mm WeatherDisplay:10.37 W/m2 FEW
10:49 0.3 °F /  -17.6 °C -0.6 °F /  -18.1 °C 1010.7in /  34222.3hPa South 2.3mph /  3.7km/h 7.4mph /  11.9km/h 94% 0.0in /  0mm WeatherDisplay:10.37 W/m2 FEW
10:54 0.3 °F /  -17.6 °C -0.5 °F /  -18.1 °C 1010.7in /  34222.3hPa Calm     94% 0.0in /  0mm WeatherDisplay:10.37 W/m2 FEW
10:59 0.3 °F /  -17.6 °C -0.5 °F /  -18.1 °C 1010.7in /  34222.3hPa SSE 0.5mph /  0.8km/h 6.4mph /  10.3km/h 94% 0.0in /  0mm WeatherDisplay:10.37 W/m2 FEW
11:04 0.3 °F /  -17.6 °C -0.5 °F /  -18.1 °C 1010.7in /  34222.3hPa ESE 2.3mph /  3.7km/h 5.6mph /  9km/h 94% 0.0in /  0mm WeatherDisplay:10.37 W/m2 FEW
11:09 0.3 °F /  -17.6 °C -0.5 °F /  -18.1 °C 1010.4in /  34212.1hPa SE 1.3mph /  2.1km/h 1.6mph /  2.6km/h 94% 0.0in /  0mm WeatherDisplay:10.37 W/m2 FEW
11:14 0.3 °F /  -17.6 °C -0.5 °F /  -18.1 °C 1010.4in /  34212.1hPa ESE 4.8mph /  7.7km/h 14.8mph /  23.8km/h 94% 0.0in /  0mm WeatherDisplay:10.37 W/m2 FEW
11:19 0.4 °F /  -17.6 °C -0.4 °F /  -18 °C 1010.4in /  34212.1hPa SSE 4.3mph /  6.9km/h 5.6mph /  9km/h 94% 0.0in /  0mm WeatherDisplay:10.37 W/m2 FEW
11:24 0.4 °F /  -17.6 °C -0.4 °F /  -18 °C 1010.4in /  34212.1hPa Calm     94% 0.0in /  0mm WeatherDisplay:10.37 W/m2 FEW
11:29 0.4 °F /  -17.6 °C -0.4 °F /  -18 °C 1010.4in /  34212.1hPa SSE 1.6mph /  2.6km/h 5.6mph /  9km/h 94% 0.0in /  0mm WeatherDisplay:10.37 W/m2 FEW
11:34 0.4 °F /  -17.6 °C -0.4 °F /  -18 °C 1010.4in /  34212.1hPa South 0.2mph /  0.3km/h 5.6mph /  9km/h 94% 0.0in /  0mm WeatherDisplay:10.37 W/m2 FEW
11:39 0.4 °F /  -17.6 °C -0.4 °F /  -18 °C 1010.0in /  34198.6hPa South 1.1mph /  1.8km/h 5.6mph /  9km/h 94% 0.0in /  0mm WeatherDisplay:10.37 W/m2 FEW
11:44 0.4 °F /  -17.6 °C -0.4 °F /  -18 °C 1010.0in /  34198.6hPa Calm     94% 0.0in /  0mm WeatherDisplay:10.37 W/m2 FEW
11:49 0.4 °F /  -17.6 °C -0.4 °F /  -18 °C 1010.0in /  34198.6hPa SSE 0.8mph /  1.3km/h 5.6mph /  9km/h 94% 0.0in /  0mm WeatherDisplay:10.37 W/m2 FEW
11:54 0.4 °F /  -17.6 °C -0.4 °F /  -18 °C 1010.0in /  34198.6hPa Calm     94% 0.0in /  0mm WeatherDisplay:10.37 W/m2 FEW
11:59 0.4 °F /  -17.6 °C -0.4 °F /  -18 °C 1009.7in /  34188.4hPa SE 4.7mph /  7.6km/h 14.8mph /  23.8km/h 94% 0.0in /  0mm WeatherDisplay:10.37 W/m2 FEW
12:04 0.4 °F /  -17.6 °C -0.4 °F /  -18 °C 1010.0in /  34198.6hPa SE 3.4mph /  5.5km/h 9.3mph /  15km/h 94% 0.0in /  0mm WeatherDisplay:10.37 W/m2 FEW
12:09 0.4 °F /  -17.6 °C -0.4 °F /  -18 °C 1009.7in /  34188.4hPa SE 3.5mph /  5.6km/h 11.1mph /  17.9km/h 94% 0.0in /  0mm WeatherDisplay:10.37 W/m2 FEW
12:14 0.4 °F /  -17.6 °C -0.4 °F /  -18 °C 1009.7in /  34188.4hPa Calm   5.6mph /  9km/h 94% 0.0in /  0mm WeatherDisplay:10.37 W/m2 FEW
12:19 0.4 °F /  -17.6 °C -0.4 °F /  -18 °C 1009.7in /  34188.4hPa ENE 1.6mph /  2.6km/h 9.3mph /  15km/h 94% 0.0in /  0mm WeatherDisplay:10.37 W/m2 FEW
12:24 0.4 °F /  -17.6 °C -0.4 °F /  -18 °C 1009.4in /  34178.3hPa ESE 3.5mph /  5.6km/h 5.6mph /  9km/h 94% 0.0in /  0mm WeatherDisplay:10.37 W/m2 FEW
12:29 0.4 °F /  -17.6 °C -0.4 °F /  -18 °C 1009.4in /  34178.3hPa ESE 2.6mph /  4.2km/h 14.8mph /  23.8km/h 94% 0.0in /  0mm WeatherDisplay:10.37 W/m2 FEW
12:34 0.5 °F /  -17.5 °C -0.3 °F /  -17.9 °C 1009.4in /  34178.3hPa ESE 2.9mph /  4.7km/h 13.0mph /  20.9km/h 94% 0.0in /  0mm WeatherDisplay:10.37 W/m2 FEW
12:39 0.5 °F /  -17.5 °C -0.3 °F /  -17.9 °C 1009.4in /  34178.3hPa ESE 2.4mph /  3.9km/h 11.1mph /  17.9km/h 94% 0.0in /  0mm WeatherDisplay:10.37 W/m2 FEW
12:44 0.5 °F /  -17.5 °C -0.3 °F /  -17.9 °C 1009.4in /  34178.3hPa East 4.3mph /  6.9km/h 11.1mph /  17.9km/h 94% 0.0in /  0mm WeatherDisplay:10.37 W/m2 FEW
12:49 0.5 °F /  -17.5 °C -0.3 °F /  -17.9 °C 1009.0in /  34164.7hPa SE 5.5mph /  8.9km/h 14.8mph /  23.8km/h 94% 0.0in /  0mm WeatherDisplay:10.37 W/m2 FEW
12:54 0.5 °F /  -17.5 °C -0.3 °F /  -17.9 °C 1009.0in /  34164.7hPa ESE 4.3mph /  6.9km/h 5.6mph /  9km/h 94% 0.0in /  0mm WeatherDisplay:10.37 W/m2 FEW
12:59 0.6 °F /  -17.4 °C -0.3 °F /  -17.9 °C 1009.0in /  34164.7hPa East 2.1mph /  3.4km/h 8.0mph /  12.9km/h 94% 0.0in /  0mm WeatherDisplay:10.37 W/m2 FEW
13:04 0.6 °F /  -17.4 °C -0.3 °F /  -17.9 °C 1008.7in /  34154.6hPa SSE 1.3mph /  2.1km/h 9.3mph /  15km/h 94% 0.3in /  7.62mm WeatherDisplay:10.37 W/m2 RA
13:09 0.6 °F /  -17.4 °C -0.3 °F /  -17.9 °C 1008.7in /  34154.6hPa ESE 0.8mph /  1.3km/h 11.1mph /  17.9km/h 94% 0.3in /  7.62mm WeatherDisplay:10.37 W/m2 RA
13:14 0.6 °F /  -17.4 °C -0.3 °F /  -17.9 °C 1008.7in /  34154.6hPa SE 2.6mph /  4.2km/h 5.6mph /  9km/h 94% 0.3in /  7.62mm WeatherDisplay:10.37 W/m2 FEW
13:19 0.5 °F /  -17.5 °C -0.3 °F /  -17.9 °C 1008.4in /  34144.4hPa Calm   3.7mph /  6km/h 94% 0.5in /  12.7mm WeatherDisplay:10.37 W/m2 RA
13:24 0.6 °F /  -17.4 °C -0.3 °F /  -17.9 °C 1008.4in /  34144.4hPa ESE 1.6mph /  2.6km/h 3.7mph /  6km/h 94% 0.5in /  12.7mm WeatherDisplay:10.37 W/m2 RA
13:29 0.6 °F /  -17.4 °C -0.3 °F /  -17.9 °C 1008.4in /  34144.4hPa SSE 1.4mph /  2.3km/h 8.0mph /  12.9km/h 94% 0.5in /  12.7mm WeatherDisplay:10.37 W/m2 RA
13:34 0.6 °F /  -17.4 °C -0.3 °F /  -17.9 °C 1008.4in /  34144.4hPa ESE 1.4mph /  2.3km/h 5.6mph /  9km/h 94% 0.8in /  20.32mm WeatherDisplay:10.37 W/m2 RA
13:39 0.6 °F /  -17.4 °C -0.3 °F /  -17.9 °C 1008.0in /  34130.9hPa SE 5.3mph /  8.5km/h 11.1mph /  17.9km/h 94% 0.8in /  20.32mm WeatherDisplay:10.37 W/m2 RA
13:44 0.5 °F /  -17.5 °C -0.3 °F /  -17.9 °C 1008.0in /  34130.9hPa SE 2.1mph /  3.4km/h 3.2mph /  5.1km/h 94% 0.8in /  20.32mm WeatherDisplay:10.37 W/m2 FEW
13:49 0.5 °F /  -17.5 °C -0.3 °F /  -17.9 °C 1008.0in /  34130.9hPa Calm   9.3mph /  15km/h 94% 0.8in /  20.32mm WeatherDisplay:10.37 W/m2 FEW
13:54 0.5 °F /  -17.5 °C -0.3 °F /  -17.9 °C 1008.0in /  34130.9hPa East 0.2mph /  0.3km/h 9.3mph /  15km/h 94% 1.0in /  25.4mm WeatherDisplay:10.37 W/m2 RA
13:59 0.6 °F /  -17.4 °C -0.3 °F /  -17.9 °C 1007.7in /  34120.7hPa Calm     94% 1.0in /  25.4mm WeatherDisplay:10.37 W/m2 RA
14:04 0.6 °F /  -17.4 °C -0.3 °F /  -17.9 °C 1007.7in /  34120.7hPa SE 4.7mph /  7.6km/h 4.8mph /  7.7km/h 94% 0.8in /  20.32mm WeatherDisplay:10.37 W/m2 FEW
14:09 0.5 °F /  -17.5 °C -0.3 °F /  -17.9 °C 1007.7in /  34120.7hPa SE 4.8mph /  7.7km/h 5.6mph /  9km/h 94% 0.8in /  20.32mm WeatherDisplay:10.37 W/m2 FEW
14:14 0.5 °F /  -17.5 °C -0.3 °F /  -17.9 °C 1007.7in /  34120.7hPa SSE 2.1mph /  3.4km/h 13.0mph /  20.9km/h 94% 1.0in /  25.4mm WeatherDisplay:10.37 W/m2 RA
14:19 0.5 °F /  -17.5 °C -0.3 °F /  -17.9 °C 1007.7in /  34120.7hPa SE 1.9mph /  3.1km/h 11.1mph /  17.9km/h 94% 0.8in /  20.32mm WeatherDisplay:10.37 W/m2 RA
14:24 0.5 °F /  -17.5 °C -0.3 °F /  -17.9 °C 1007.3in /  34107.2hPa ESE 2.4mph /  3.9km/h 3.7mph /  6km/h 94% 0.5in /  12.7mm WeatherDisplay:10.37 W/m2 FEW
14:29 0.5 °F /  -17.5 °C -0.3 °F /  -17.9 °C 1007.3in /  34107.2hPa SSE 5.3mph /  8.5km/h 5.6mph /  9km/h 94% 0.5in /  12.7mm WeatherDisplay:10.37 W/m2 FEW
14:34 0.4 °F /  -17.6 °C -0.4 °F /  -18 °C 1007.3in /  34107.2hPa ESE 5.6mph /  9km/h 11.1mph /  17.9km/h 94% 0.5in /  12.7mm WeatherDisplay:10.37 W/m2 FEW
14:39 0.5 °F /  -17.5 °C -0.3 °F /  -17.9 °C 1007.3in /  34107.2hPa ENE 4.3mph /  6.9km/h 16.7mph /  26.9km/h 94% 0.5in /  12.7mm WeatherDisplay:10.37 W/m2 FEW
14:44 0.4 °F /  -17.6 °C -0.4 °F /  -18 °C 1007.3in /  34107.2hPa SSE 2.7mph /  4.3km/h 6.4mph /  10.3km/h 94% 0.5in /  12.7mm WeatherDisplay:10.37 W/m2 FEW
14:49 0.4 °F /  -17.6 °C -0.4 °F /  -18 °C 1007.3in /  34107.2hPa SE 2.9mph /  4.7km/h 7.4mph /  11.9km/h 94% 0.5in /  12.7mm WeatherDisplay:10.37 W/m2 FEW
14:54 0.4 °F /  -17.6 °C -0.4 °F /  -18 °C 1007.3in /  34107.2hPa SE 2.9mph /  4.7km/h 5.6mph /  9km/h 94% 0.3in /  7.62mm WeatherDisplay:10.37 W/m2 FEW
14:59 0.4 °F /  -17.6 °C -0.4 °F /  -18 °C 1007.0in /  34097hPa SE 4.5mph /  7.2km/h 11.3mph /  18.2km/h 94% 0.3in /  7.62mm WeatherDisplay:10.37 W/m2 FEW
15:04 0.5 °F /  -17.5 °C -0.3 °F /  -17.9 °C 1007.0in /  34097hPa South 1.9mph /  3.1km/h 7.4mph /  11.9km/h 94% 0.5in /  12.7mm WeatherDisplay:10.37 W/m2 RA
15:09 0.5 °F /  -17.5 °C -0.3 °F /  -17.9 °C 1007.0in /  34097hPa South 5.6mph /  9km/h 18.5mph /  29.8km/h 94% 0.5in /  12.7mm WeatherDisplay:10.37 W/m2 RA
15:14 0.5 °F /  -17.5 °C -0.3 °F /  -17.9 °C 1007.0in /  34097hPa ESE 6.4mph /  10.3km/h 13.0mph /  20.9km/h 94% 0.3in /  7.62mm WeatherDisplay:10.37 W/m2 FEW
15:19 0.5 °F /  -17.5 °C -0.3 °F /  -17.9 °C 1006.7in /  34086.9hPa SSE 1.0mph /  1.6km/h 11.3mph /  18.2km/h 94% 0.3in /  7.62mm WeatherDisplay:10.37 W/m2 FEW
15:24 0.5 °F /  -17.5 °C -0.3 °F /  -17.9 °C 1006.7in /  34086.9hPa ENE 4.7mph /  7.6km/h 11.1mph /  17.9km/h 94% 0.3in /  7.62mm WeatherDisplay:10.37 W/m2 FEW
15:29 0.5 °F /  -17.5 °C -0.3 °F /  -17.9 °C 1006.7in /  34086.9hPa ESE 3.1mph /  5km/h 6.4mph /  10.3km/h 94% 0.3in /  7.62mm WeatherDisplay:10.37 W/m2 FEW
15:34 0.5 °F /  -17.5 °C -0.3 °F /  -17.9 °C 1006.7in /  34086.9hPa South 6.0mph /  9.7km/h 13.0mph /  20.9km/h 94% 0.3in /  7.62mm WeatherDisplay:10.37 W/m2 FEW
15:39 0.5 °F /  -17.5 °C -0.3 °F /  -17.9 °C 1006.7in /  34086.9hPa Calm   5.6mph /  9km/h 94% 0.3in /  7.62mm WeatherDisplay:10.37 W/m2 FEW
15:44 0.5 °F /  -17.5 °C -0.3 °F /  -17.9 °C 1006.3in /  34073.3hPa SE 4.0mph /  6.4km/h 11.1mph /  17.9km/h 94% 0.3in /  7.62mm WeatherDisplay:10.37 W/m2 FEW
15:49 0.5 °F /  -17.5 °C -0.3 °F /  -17.9 °C 1006.3in /  34073.3hPa SE 5.8mph /  9.3km/h 11.1mph /  17.9km/h 94% 0.3in /  7.62mm WeatherDisplay:10.37 W/m2 FEW
15:54 0.5 °F /  -17.5 °C -0.3 °F /  -17.9 °C 1006.3in /  34073.3hPa ESE 6.3mph /  10.1km/h 14.8mph /  23.8km/h 94% 0.3in /  7.62mm WeatherDisplay:10.37 W/m2 FEW
15:59 0.5 °F /  -17.5 °C -0.3 °F /  -17.9 °C 1006.3in /  34073.3hPa SE 6.8mph /  10.9km/h 9.3mph /  15km/h 94% 0.3in /  7.62mm WeatherDisplay:10.37 W/m2 FEW
16:04 0.5 °F /  -17.5 °C -0.3 °F /  -17.9 °C 1006.0in /  34063.2hPa ESE 3.9mph /  6.3km/h 13.0mph /  20.9km/h 94% 0.0in /  0mm WeatherDisplay:10.37 W/m2 FEW
16:09 0.5 °F /  -17.5 °C -0.3 °F /  -17.9 °C 1006.0in /  34063.2hPa ESE 7.6mph /  12.2km/h 11.1mph /  17.9km/h 94% 0.0in /  0mm WeatherDisplay:10.37 W/m2 FEW
16:14 0.5 °F /  -17.5 °C -0.3 °F /  -17.9 °C 1006.0in /  34063.2hPa East 1.6mph /  2.6km/h 5.6mph /  9km/h 94% 0.0in /  0mm WeatherDisplay:10.37 W/m2 FEW
16:19 0.5 °F /  -17.5 °C -0.3 °F /  -17.9 °C 1006.0in /  34063.2hPa East 1.0mph /  1.6km/h 5.6mph /  9km/h 94% 0.0in /  0mm WeatherDisplay:10.37 W/m2 FEW
16:24 0.5 °F /  -17.5 °C -0.3 °F /  -17.9 °C 1006.0in /  34063.2hPa SE 1.9mph /  3.1km/h 11.1mph /  17.9km/h 94% 0.0in /  0mm WeatherDisplay:10.37 W/m2 FEW
16:29 0.5 °F /  -17.5 °C -0.3 °F /  -17.9 °C 1005.6in /  34049.6hPa SE 5.8mph /  9.3km/h 14.8mph /  23.8km/h 94% 0.0in /  0mm WeatherDisplay:10.37 W/m2 FEW
16:34 0.5 °F /  -17.5 °C -0.3 °F /  -17.9 °C 1005.6in /  34049.6hPa SE 6.3mph /  10.1km/h 18.5mph /  29.8km/h 94% 0.0in /  0mm WeatherDisplay:10.37 W/m2 FEW
16:39 0.5 °F /  -17.5 °C -0.3 °F /  -17.9 °C 1005.6in /  34049.6hPa SE 6.6mph /  10.6km/h 9.3mph /  15km/h 94% 0.0in /  0mm WeatherDisplay:10.37 W/m2 FEW
16:44 0.5 °F /  -17.5 °C -0.3 °F /  -17.9 °C 1005.6in /  34049.6hPa East 3.7mph /  6km/h 11.1mph /  17.9km/h 94% 0.0in /  0mm WeatherDisplay:10.37 W/m2 FEW
16:49 0.4 °F /  -17.6 °C -0.4 °F /  -18 °C 1005.6in /  34049.6hPa SE 3.1mph /  5km/h 11.1mph /  17.9km/h 94% 0.0in /  0mm WeatherDisplay:10.37 W/m2 FEW
16:54 0.5 °F /  -17.5 °C -0.3 °F /  -17.9 °C 1005.6in /  34049.6hPa East 2.7mph /  4.3km/h 7.4mph /  11.9km/h 94% 0.0in /  0mm WeatherDisplay:10.37 W/m2 FEW
16:59 0.5 °F /  -17.5 °C -0.3 °F /  -17.9 °C 1005.6in /  34049.6hPa ESE 3.1mph /  5km/h 13.0mph /  20.9km/h 94% 0.0in /  0mm WeatherDisplay:10.37 W/m2 FEW
17:04 0.4 °F /  -17.6 °C -0.4 °F /  -18 °C 1005.3in /  34039.5hPa SE 6.0mph /  9.7km/h 11.1mph /  17.9km/h 94% 0.0in /  0mm WeatherDisplay:10.37 W/m2 FEW
17:09 0.5 °F /  -17.5 °C -0.3 °F /  -17.9 °C 1005.3in /  34039.5hPa East 1.4mph /  2.3km/h 16.7mph /  26.9km/h 94% 0.0in /  0mm WeatherDisplay:10.37 W/m2 FEW
17:14 0.5 °F /  -17.5 °C -0.3 °F /  -17.9 °C 1005.3in /  34039.5hPa SE 2.1mph /  3.4km/h 5.6mph /  9km/h 94% 0.0in /  0mm WeatherDisplay:10.37 W/m2 FEW
17:19 0.5 °F /  -17.5 °C -0.3 °F /  -17.9 °C 1005.3in /  34039.5hPa East 7.4mph /  11.9km/h 9.3mph /  15km/h 94% 0.0in /  0mm WeatherDisplay:10.37 W/m2 FEW
17:24 0.5 °F /  -17.5 °C -0.3 °F /  -17.9 °C 1005.3in /  34039.5hPa East 5.1mph /  8.2km/h 7.4mph /  11.9km/h 94% 0.0in /  0mm WeatherDisplay:10.37 W/m2 FEW
17:29 0.5 °F /  -17.5 °C -0.3 °F /  -17.9 °C 1005.3in /  34039.5hPa ESE 5.3mph /  8.5km/h 18.5mph /  29.8km/h 94% 0.3in /  7.62mm WeatherDisplay:10.37 W/m2 RA
17:34 0.5 °F /  -17.5 °C -0.3 °F /  -17.9 °C 1005.3in /  34039.5hPa East 3.1mph /  5km/h 5.6mph /  9km/h 94% 0.3in /  7.62mm WeatherDisplay:10.37 W/m2 RA
17:39 0.5 °F /  -17.5 °C -0.3 °F /  -17.9 °C 1005.3in /  34039.5hPa East 8.7mph /  14km/h 9.3mph /  15km/h 94% 0.3in /  7.62mm WeatherDisplay:10.37 W/m2 FEW
17:44 0.5 °F /  -17.5 °C -0.3 °F /  -17.9 °C 1005.0in /  34029.3hPa East 5.0mph /  8km/h 11.1mph /  17.9km/h 94% 0.3in /  7.62mm WeatherDisplay:10.37 W/m2 FEW
17:49 0.5 °F /  -17.5 °C -0.3 °F /  -17.9 °C 1005.0in /  34029.3hPa ESE 0.8mph /  1.3km/h 5.6mph /  9km/h 94% 0.3in /  7.62mm WeatherDisplay:10.37 W/m2 FEW
17:54 0.5 °F /  -17.5 °C -0.3 °F /  -17.9 °C 1005.0in /  34029.3hPa SE 6.0mph /  9.7km/h 9.3mph /  15km/h 94% 0.3in /  7.62mm WeatherDisplay:10.37 W/m2 FEW
17:59 0.5 °F /  -17.5 °C -0.3 °F /  -17.9 °C 1005.0in /  34029.3hPa East 8.2mph /  13.2km/h 9.7mph /  15.6km/h 94% 0.3in /  7.62mm WeatherDisplay:10.37 W/m2 FEW
18:04 0.5 °F /  -17.5 °C -0.3 °F /  -17.9 °C 1005.0in /  34029.3hPa ESE 2.1mph /  3.4km/h 5.6mph /  9km/h 94% 0.3in /  7.62mm WeatherDisplay:10.37 W/m2 FEW
18:09 0.5 °F /  -17.5 °C -0.3 °F /  -17.9 °C 1005.0in /  34029.3hPa ENE 6.4mph /  10.3km/h 14.8mph /  23.8km/h 94% 0.3in /  7.62mm WeatherDisplay:10.37 W/m2 FEW
18:14 0.5 °F /  -17.5 °C -0.3 °F /  -17.9 °C 1004.6in /  34015.8hPa SE 7.2mph /  11.6km/h 16.7mph /  26.9km/h 94% 0.3in /  7.62mm WeatherDisplay:10.37 W/m2 FEW
18:19 0.6 °F /  -17.4 °C -0.3 °F /  -17.9 °C 1004.6in /  34015.8hPa ENE 2.7mph /  4.3km/h 11.1mph /  17.9km/h 94% 0.3in /  7.62mm WeatherDisplay:10.37 W/m2 FEW
18:24 0.5 °F /  -17.5 °C -0.3 °F /  -17.9 °C 1004.6in /  34015.8hPa East 0.6mph /  1km/h 11.1mph /  17.9km/h 94% 0.3in /  7.62mm WeatherDisplay:10.37 W/m2 FEW
18:29 0.5 °F /  -17.5 °C -0.3 °F /  -17.9 °C 1004.6in /  34015.8hPa East 1.3mph /  2.1km/h 7.4mph /  11.9km/h 94% 0.0in /  0mm WeatherDisplay:10.37 W/m2 FEW
18:34 0.6 °F /  -17.4 °C -0.3 °F /  -17.9 °C 1004.6in /  34015.8hPa ESE 7.1mph /  11.4km/h 13.0mph /  20.9km/h 94% 0.0in /  0mm WeatherDisplay:10.37 W/m2 FEW
18:39 0.6 °F /  -17.4 °C -0.3 °F /  -17.9 °C 1004.6in /  34015.8hPa East 6.0mph /  9.7km/h 11.1mph /  17.9km/h 94% 0.0in /  0mm WeatherDisplay:10.37 W/m2 FEW
18:44 0.6 °F /  -17.4 °C -0.3 °F /  -17.9 °C 1004.6in /  34015.8hPa ESE 5.3mph /  8.5km/h 14.8mph /  23.8km/h 94% 0.0in /  0mm WeatherDisplay:10.37 W/m2 FEW
18:49 0.6 °F /  -17.4 °C -0.3 °F /  -17.9 °C 1004.3in /  34005.6hPa East 6.4mph /  10.3km/h 11.3mph /  18.2km/h 94% 0.0in /  0mm WeatherDisplay:10.37 W/m2 FEW
18:54 0.6 °F /  -17.4 °C -0.3 °F /  -17.9 °C 1004.3in /  34005.6hPa East 3.1mph /  5km/h 7.4mph /  11.9km/h 94% 0.0in /  0mm WeatherDisplay:10.37 W/m2 FEW
18:59 0.6 °F /  -17.4 °C -0.3 °F /  -17.9 °C 1004.3in /  34005.6hPa SE 4.8mph /  7.7km/h 14.8mph /  23.8km/h 94% 0.0in /  0mm WeatherDisplay:10.37 W/m2 FEW
19:04 0.6 °F /  -17.4 °C -0.3 °F /  -17.9 °C 1004.3in /  34005.6hPa East 4.3mph /  6.9km/h 7.4mph /  11.9km/h 94% 0.0in /  0mm WeatherDisplay:10.37 W/m2 FEW
19:09 0.6 °F /  -17.4 °C -0.3 °F /  -17.9 °C 1004.3in /  34005.6hPa ESE 1.0mph /  1.6km/h 3.2mph /  5.1km/h 94% 0.0in /  0mm WeatherDisplay:10.37 W/m2 FEW
19:14 0.6 °F /  -17.4 °C -0.3 °F /  -17.9 °C 1004.3in /  34005.6hPa East 5.0mph /  8km/h 7.4mph /  11.9km/h 94% 0.0in /  0mm WeatherDisplay:10.37 W/m2 FEW
19:19 0.6 °F /  -17.4 °C -0.3 °F /  -17.9 °C 1004.3in /  34005.6hPa East 1.1mph /  1.8km/h 5.6mph /  9km/h 94% 0.0in /  0mm WeatherDisplay:10.37 W/m2 FEW
19:24 0.6 °F /  -17.4 °C -0.3 °F /  -17.9 °C 1004.3in /  34005.6hPa East 1.9mph /  3.1km/h 5.6mph /  9km/h 94% 0.0in /  0mm WeatherDisplay:10.37 W/m2 FEW
19:29 0.6 °F /  -17.4 °C -0.3 °F /  -17.9 °C 1004.3in /  34005.6hPa East 4.0mph /  6.4km/h 9.3mph /  15km/h 94% 0.0in /  0mm WeatherDisplay:10.37 W/m2 FEW
19:34 0.6 °F /  -17.4 °C -0.3 °F /  -17.9 °C 1004.3in /  34005.6hPa South 1.8mph /  2.9km/h 5.6mph /  9km/h 94% 0.0in /  0mm WeatherDisplay:10.37 W/m2 FEW
19:39 0.6 °F /  -17.4 °C -0.3 °F /  -17.9 °C 1003.9in /  33992.1hPa NE 1.4mph /  2.3km/h 5.6mph /  9km/h 94% 0.0in /  0mm WeatherDisplay:10.37 W/m2 FEW
19:44 0.5 °F /  -17.5 °C -0.3 °F /  -17.9 °C 1003.9in /  33992.1hPa ENE 2.1mph /  3.4km/h 9.3mph /  15km/h 94% 0.0in /  0mm WeatherDisplay:10.37 W/m2 FEW
19:49 0.6 °F /  -17.4 °C -0.3 °F /  -17.9 °C 1003.9in /  33992.1hPa ESE 2.4mph /  3.9km/h 9.3mph /  15km/h 94% 0.0in /  0mm WeatherDisplay:10.37 W/m2 FEW
19:54 0.5 °F /  -17.5 °C -0.3 °F /  -17.9 °C 1003.9in /  33992.1hPa SE 6.1mph /  9.8km/h 8.0mph /  12.9km/h 94% 0.0in /  0mm WeatherDisplay:10.37 W/m2 FEW
19:59 0.5 °F /  -17.5 °C -0.3 °F /  -17.9 °C 1003.9in /  33992.1hPa SE 2.3mph /  3.7km/h 6.4mph /  10.3km/h 94% 0.0in /  0mm WeatherDisplay:10.37 W/m2 FEW
20:04 0.6 °F /  -17.4 °C -0.3 °F /  -17.9 °C 1003.9in /  33992.1hPa East 6.9mph /  11.1km/h 13.0mph /  20.9km/h 94% 0.0in /  0mm WeatherDisplay:10.37 W/m2 FEW
20:09 0.6 °F /  -17.4 °C -0.3 °F /  -17.9 °C 1003.9in /  33992.1hPa ESE 2.6mph /  4.2km/h 9.3mph /  15km/h 94% 0.0in /  0mm WeatherDisplay:10.37 W/m2 FEW
20:14 0.6 °F /  -17.4 °C -0.3 °F /  -17.9 °C 1003.9in /  33992.1hPa ESE 4.5mph /  7.2km/h 11.3mph /  18.2km/h 94% 0.0in /  0mm WeatherDisplay:10.37 W/m2 FEW
20:19 0.6 °F /  -17.4 °C -0.3 °F /  -17.9 °C 1003.9in /  33992.1hPa Calm   5.6mph /  9km/h 94% 0.0in /  0mm WeatherDisplay:10.37 W/m2 FEW
20:24 0.6 °F /  -17.4 °C -0.3 °F /  -17.9 °C 1003.6in /  33981.9hPa ESE 5.6mph /  9km/h 11.1mph /  17.9km/h 94% 0.0in /  0mm WeatherDisplay:10.37 W/m2 FEW
20:29 0.6 °F /  -17.4 °C -0.3 °F /  -17.9 °C 1003.6in /  33981.9hPa ESE 0.6mph /  1km/h 1.6mph /  2.6km/h 94% 0.0in /  0mm WeatherDisplay:10.37 W/m2 FEW
20:34 0.6 °F /  -17.4 °C -0.3 °F /  -17.9 °C 1003.6in /  33981.9hPa ESE 7.9mph /  12.7km/h 7.9mph /  12.7km/h 94% 0.0in /  0mm WeatherDisplay:10.37 W/m2 FEW
20:39 0.6 °F /  -17.4 °C -0.3 °F /  -17.9 °C 1003.6in /  33981.9hPa ENE 5.1mph /  8.2km/h 5.6mph /  9km/h 94% 0.0in /  0mm WeatherDisplay:10.37 W/m2 FEW
20:44 0.6 °F /  -17.4 °C -0.3 °F /  -17.9 °C 1003.6in /  33981.9hPa ESE 2.3mph /  3.7km/h 5.6mph /  9km/h 94% 0.0in /  0mm WeatherDisplay:10.37 W/m2 FEW
20:49 0.6 °F /  -17.4 °C -0.3 °F /  -17.9 °C 1003.6in /  33981.9hPa ENE 2.9mph /  4.7km/h 3.7mph /  6km/h 94% 0.0in /  0mm WeatherDisplay:10.37 W/m2 FEW
20:54 0.6 °F /  -17.4 °C -0.3 °F /  -17.9 °C 1003.6in /  33981.9hPa East 2.1mph /  3.4km/h 7.4mph /  11.9km/h 94% 0.0in /  0mm WeatherDisplay:10.37 W/m2 FEW
20:59 0.6 °F /  -17.4 °C -0.3 °F /  -17.9 °C 1003.6in /  33981.9hPa East 3.4mph /  5.5km/h 4.8mph /  7.7km/h 94% 0.0in /  0mm WeatherDisplay:10.37 W/m2 FEW
21:04 0.6 °F /  -17.4 °C -0.3 °F /  -17.9 °C 1003.6in /  33981.9hPa SE 2.1mph /  3.4km/h 5.6mph /  9km/h 94% 0.0in /  0mm WeatherDisplay:10.37 W/m2 FEW
21:09 0.6 °F /  -17.4 °C -0.3 °F /  -17.9 °C 1003.6in /  33981.9hPa Calm   1.9mph /  3.1km/h 94% 0.0in /  0mm WeatherDisplay:10.37 W/m2 FEW
21:14 0.6 °F /  -17.4 °C -0.3 °F /  -17.9 °C 1003.6in /  33981.9hPa ESE 0.5mph /  0.8km/h 6.4mph /  10.3km/h 94% 0.0in /  0mm WeatherDisplay:10.37 W/m2 FEW
21:19 0.6 °F /  -17.4 °C -0.3 °F /  -17.9 °C 1003.3in /  33971.7hPa SE 1.8mph /  2.9km/h 7.4mph /  11.9km/h 94% 0.0in /  0mm WeatherDisplay:10.37 W/m2 FEW
21:24 0.6 °F /  -17.4 °C -0.3 °F /  -17.9 °C 1003.3in /  33971.7hPa East 1.0mph /  1.6km/h 4.8mph /  7.7km/h 94% 0.0in /  0mm WeatherDisplay:10.37 W/m2 FEW
21:29 0.6 °F /  -17.4 °C -0.3 °F /  -17.9 °C 1003.3in /  33971.7hPa East 1.3mph /  2.1km/h 5.6mph /  9km/h 94% 0.0in /  0mm WeatherDisplay:10.37 W/m2 FEW
21:34 0.5 °F /  -17.5 °C -0.3 °F /  -17.9 °C 1003.3in /  33971.7hPa ENE 1.4mph /  2.3km/h 5.6mph /  9km/h 94% 0.0in /  0mm WeatherDisplay:10.37 W/m2 FEW
21:39 0.6 °F /  -17.4 °C -0.3 °F /  -17.9 °C 1003.3in /  33971.7hPa ENE 1.1mph /  1.8km/h 13.0mph /  20.9km/h 94% 0.0in /  0mm WeatherDisplay:10.37 W/m2 FEW
21:44 0.5 °F /  -17.5 °C -0.3 °F /  -17.9 °C 1003.3in /  33971.7hPa Calm   1.6mph /  2.6km/h 94% 0.0in /  0mm WeatherDisplay:10.37 W/m2 FEW
21:49 0.5 °F /  -17.5 °C -0.3 °F /  -17.9 °C 1003.3in /  33971.7hPa East 5.0mph /  8km/h 5.6mph /  9km/h 94% 0.0in /  0mm WeatherDisplay:10.37 W/m2 FEW
21:54 0.5 °F /  -17.5 °C -0.3 °F /  -17.9 °C 1003.3in /  33971.7hPa ESE 5.5mph /  8.9km/h 5.6mph /  9km/h 94% 0.0in /  0mm WeatherDisplay:10.37 W/m2 FEW
21:59 0.6 °F /  -17.4 °C -0.3 °F /  -17.9 °C 1003.3in /  33971.7hPa ENE 3.2mph /  5.1km/h 5.6mph /  9km/h 94% 0.0in /  0mm WeatherDisplay:10.37 W/m2 FEW
22:04 0.5 °F /  -17.5 °C -0.3 °F /  -17.9 °C 1003.3in /  33971.7hPa SE 3.1mph /  5km/h 9.3mph /  15km/h 94% 0.0in /  0mm WeatherDisplay:10.37 W/m2 FEW
22:09 0.5 °F /  -17.5 °C -0.3 °F /  -17.9 °C 1003.3in /  33971.7hPa Calm   5.6mph /  9km/h 94% 0.0in /  0mm WeatherDisplay:10.37 W/m2 FEW
22:14 0.5 °F /  -17.5 °C -0.3 °F /  -17.9 °C 1003.3in /  33971.7hPa ESE 3.2mph /  5.1km/h 5.6mph /  9km/h 94% 0.0in /  0mm WeatherDisplay:10.37 W/m2 FEW
22:20 0.6 °F /  -17.4 °C -0.3 °F /  -17.9 °C 1003.3in /  33971.7hPa NE 0.2mph /  0.3km/h   94% 0.0in /  0mm WeatherDisplay:10.37 W/m2 FEW
22:25 0.6 °F /  -17.4 °C -0.3 °F /  -17.9 °C 1003.3in /  33971.7hPa Calm   5.6mph /  9km/h 94% 0.0in /  0mm WeatherDisplay:10.37 W/m2 FEW
22:30 0.6 °F /  -17.4 °C -0.3 °F /  -17.9 °C 1003.3in /  33971.7hPa ENE 2.6mph /  4.2km/h 5.6mph /  9km/h 94% 0.0in /  0mm WeatherDisplay:10.37 W/m2 FEW
22:35 0.6 °F /  -17.4 °C -0.3 °F /  -17.9 °C 1003.3in /  33971.7hPa East 1.6mph /  2.6km/h 5.6mph /  9km/h 94% 0.0in /  0mm WeatherDisplay:10.37 W/m2 FEW
22:40 0.5 °F /  -17.5 °C -0.3 °F /  -17.9 °C 1002.9in /  33958.2hPa ENE 1.8mph /  2.9km/h 7.4mph /  11.9km/h 94% 0.0in /  0mm WeatherDisplay:10.37 W/m2 FEW
22:45 0.5 °F /  -17.5 °C -0.3 °F /  -17.9 °C 1002.9in /  33958.2hPa ENE 2.3mph /  3.7km/h 5.6mph /  9km/h 94% 0.0in /  0mm WeatherDisplay:10.37 W/m2 FEW
22:50 0.5 °F /  -17.5 °C -0.3 °F /  -17.9 °C 1002.9in /  33958.2hPa Calm     94% 0.0in /  0mm WeatherDisplay:10.37 W/m2 FEW
22:56 0.5 °F /  -17.5 °C -0.3 °F /  -17.9 °C 1002.9in /  33958.2hPa ENE 1.3mph /  2.1km/h 5.6mph /  9km/h 94% 0.0in /  0mm WeatherDisplay:10.37 W/m2 FEW
23:02 0.5 °F /  -17.5 °C -0.3 °F /  -17.9 °C 1002.9in /  33958.2hPa ENE 1.1mph /  1.8km/h 3.7mph /  6km/h 94% 0.0in /  0mm WeatherDisplay:10.37 W/m2 FEW
23:07 0.5 °F /  -17.5 °C -0.3 °F /  -17.9 °C 1002.9in /  33958.2hPa ENE 4.2mph /  6.8km/h 5.6mph /  9km/h 94% 0.0in /  0mm WeatherDisplay:10.37 W/m2 FEW
23:12 0.4 °F /  -17.6 °C -0.4 °F /  -18 °C 1002.9in /  33958.2hPa Calm   3.7mph /  6km/h 94% 0.0in /  0mm WeatherDisplay:10.37 W/m2 FEW
23:17 0.5 °F /  -17.5 °C -0.3 °F /  -17.9 °C 1002.9in /  33958.2hPa ENE 6.4mph /  10.3km/h 6.4mph /  10.3km/h 94% 0.0in /  0mm WeatherDisplay:10.37 W/m2 FEW
23:22 0.4 °F /  -17.6 °C -0.4 °F /  -18 °C 1002.9in /  33958.2hPa SSE 3.4mph /  5.5km/h 6.4mph /  10.3km/h 94% 0.0in /  0mm WeatherDisplay:10.37 W/m2 FEW
23:27 0.4 °F /  -17.6 °C -0.4 °F /  -18 °C 1002.9in /  33958.2hPa Calm   5.6mph /  9km/h 94% 0.0in /  0mm WeatherDisplay:10.37 W/m2 FEW
23:32 0.4 °F /  -17.6 °C -0.4 °F /  -18 °C 1002.9in /  33958.2hPa Calm   5.6mph /  9km/h 94% 0.0in /  0mm WeatherDisplay:10.37 W/m2 FEW
23:37 0.4 °F /  -17.6 °C -0.4 °F /  -18 °C 1002.9in /  33958.2hPa East 1.0mph /  1.6km/h 9.3mph /  15km/h 94% 0.0in /  0mm WeatherDisplay:10.37 W/m2 FEW
23:42 0.4 °F /  -17.6 °C -0.4 °F /  -18 °C 1002.9in /  33958.2hPa ENE 1.4mph /  2.3km/h 6.4mph /  10.3km/h 94% 0.0in /  0mm WeatherDisplay:10.37 W/m2 FEW
23:47 0.4 °F /  -17.6 °C -0.4 °F /  -18 °C 1002.9in /  33958.2hPa East 3.7mph /  6km/h 5.6mph /  9km/h 94% 0.0in /  0mm WeatherDisplay:10.37 W/m2 FEW
23:52 0.4 °F /  -17.6 °C -0.4 °F /  -18 °C 1002.9in /  33958.2hPa East 1.3mph /  2.1km/h   94% 0.0in /  0mm WeatherDisplay:10.37 W/m2 FEW
23:57 0.4 °F /  -17.6 °C -0.4 °F /  -18 °C 1002.9in /  33958.2hPa Calm   5.6mph /  9km/h 94% 0.0in /  0mm WeatherDisplay:10.37 W/m2 FEW
Tuulensuunkaari, Veikkola, Suomi
Compliments of Weather Underground - 2.75 mb